sensor_id;sensor_type;location;lat;lon;timestamp;P1;durP1;ratioP1;P2;durP2;ratioP2
26780;SDS011;14366;49.184;8.054;2024-03-23T00:55:02;7.10;;;5.15;;
26780;SDS011;14366;49.184;8.054;2024-03-23T01:05:41;8.70;;;5.80;;
26780;SDS011;14366;49.184;8.054;2024-03-23T01:16:04;10.38;;;6.18;;
26780;SDS011;14366;49.184;8.054;2024-03-23T01:21:37;6.10;;;5.50;;
26780;SDS011;14366;49.184;8.054;2024-03-23T01:26:57;7.70;;;5.55;;
26780;SDS011;14366;49.184;8.054;2024-03-23T01:32:18;8.73;;;6.20;;
26780;SDS011;14366;49.184;8.054;2024-03-23T01:37:50;10.40;;;6.60;;
26780;SDS011;14366;49.184;8.054;2024-03-23T01:43:10;9.35;;;6.40;;
26780;SDS011;14366;49.184;8.054;2024-03-23T01:53:35;9.10;;;6.20;;
26780;SDS011;14366;49.184;8.054;2024-03-23T01:59:10;10.70;;;6.80;;
26780;SDS011;14366;49.184;8.054;2024-03-23T02:09:51;11.46;;;7.90;;
26780;SDS011;14366;49.184;8.054;2024-03-23T02:20:31;10.47;;;7.67;;
26780;SDS011;14366;49.184;8.054;2024-03-23T02:30:54;12.20;;;8.80;;
26780;SDS011;14366;49.184;8.054;2024-03-23T02:36:30;12.80;;;9.00;;
26780;SDS011;14366;49.184;8.054;2024-03-23T02:41:50;10.35;;;8.35;;
26780;SDS011;14366;49.184;8.054;2024-03-23T02:47:11;10.60;;;8.43;;
26780;SDS011;14366;49.184;8.054;2024-03-23T02:52:46;13.30;;;9.00;;
26780;SDS011;14366;49.184;8.054;2024-03-23T02:58:21;14.33;;;8.97;;
26780;SDS011;14366;49.184;8.054;2024-03-23T03:03:59;14.65;;;10.05;;
26780;SDS011;14366;49.184;8.054;2024-03-23T03:14:38;16.70;;;10.40;;
26780;SDS011;14366;49.184;8.054;2024-03-23T03:25:15;16.60;;;12.40;;
26780;SDS011;14366;49.184;8.054;2024-03-23T03:35:53;16.35;;;12.25;;
26780;SDS011;14366;49.184;8.054;2024-03-23T03:46:31;12.43;;;10.00;;
26780;SDS011;14366;49.184;8.054;2024-03-23T03:52:06;12.40;;;9.80;;
26780;SDS011;14366;49.184;8.054;2024-03-23T03:57:23;12.95;;;9.05;;
26780;SDS011;14366;49.184;8.054;2024-03-23T04:02:42;9.93;;;8.37;;
26780;SDS011;14366;49.184;8.054;2024-03-23T04:08:14;9.00;;;7.43;;
26780;SDS011;14366;49.184;8.054;2024-03-23T04:13:34;8.47;;;6.83;;
26780;SDS011;14366;49.184;8.054;2024-03-23T04:18:55;9.53;;;6.63;;
26780;SDS011;14366;49.184;8.054;2024-03-23T04:24:31;7.03;;;5.80;;
26780;SDS011;14366;49.184;8.054;2024-03-23T04:30:07;6.35;;;5.00;;
26780;SDS011;14366;49.184;8.054;2024-03-23T04:40:33;5.90;;;4.30;;
26780;SDS011;14366;49.184;8.054;2024-03-23T04:46:05;4.97;;;3.80;;
26780;SDS011;14366;49.184;8.054;2024-03-23T04:56:46;4.15;;;3.00;;
26780;SDS011;14366;49.184;8.054;2024-03-23T05:02:21;2.90;;;2.60;;
26780;SDS011;14366;49.184;8.054;2024-03-23T05:13:00;2.97;;;2.10;;
26780;SDS011;14366;49.184;8.054;2024-03-23T05:23:39;2.20;;;2.00;;
26780;SDS011;14366;49.184;8.054;2024-03-23T05:34:06;2.60;;;1.90;;
26780;SDS011;14366;49.184;8.054;2024-03-23T05:39:41;2.30;;;1.63;;
26780;SDS011;14366;49.184;8.054;2024-03-23T05:45:01;1.70;;;1.50;;
26780;SDS011;14366;49.184;8.054;2024-03-23T05:50:24;2.65;;;1.50;;
26780;SDS011;14366;49.184;8.054;2024-03-23T05:56:00;1.30;;;1.20;;
26780;SDS011;14366;49.184;8.054;2024-03-23T06:01:34;1.20;;;1.10;;
26780;SDS011;14366;49.184;8.054;2024-03-23T06:11:58;1.30;;;1.20;;
26780;SDS011;14366;49.184;8.054;2024-03-23T06:22:37;1.25;;;1.15;;
26780;SDS011;14366;49.184;8.054;2024-03-23T06:28:14;1.20;;;1.10;;
26780;SDS011;14366;49.184;8.054;2024-03-23T06:33:49;2.27;;;1.00;;
26780;SDS011;14366;49.184;8.054;2024-03-23T06:39:24;1.00;;;0.90;;
26780;SDS011;14366;49.184;8.054;2024-03-23T06:45:01;0.93;;;0.90;;
26780;SDS011;14366;49.184;8.054;2024-03-23T06:50:35;0.80;;;0.80;;
26780;SDS011;14366;49.184;8.054;2024-03-23T06:56:10;0.90;;;0.90;;
26780;SDS011;14366;49.184;8.054;2024-03-23T07:01:32;1.27;;;1.17;;
26780;SDS011;14366;49.184;8.054;2024-03-23T07:07:07;1.57;;;0.90;;
26780;SDS011;14366;49.184;8.054;2024-03-23T07:12:39;2.47;;;1.60;;
26780;SDS011;14366;49.184;8.054;2024-03-23T07:18:00;3.37;;;1.40;;
26780;SDS011;14366;49.184;8.054;2024-03-23T07:23:35;3.07;;;1.60;;
26780;SDS011;14366;49.184;8.054;2024-03-23T07:29:10;2.57;;;1.83;;
26780;SDS011;14366;49.184;8.054;2024-03-23T07:34:31;2.95;;;1.80;;
26780;SDS011;14366;49.184;8.054;2024-03-23T07:40:07;2.30;;;1.87;;
26780;SDS011;14366;49.184;8.054;2024-03-23T07:45:43;3.77;;;1.70;;
26780;SDS011;14366;49.184;8.054;2024-03-23T07:51:21;5.73;;;2.07;;
26780;SDS011;14366;49.184;8.054;2024-03-23T07:56:56;4.60;;;2.30;;
26780;SDS011;14366;49.184;8.054;2024-03-23T08:02:16;6.80;;;2.43;;
26780;SDS011;14366;49.184;8.054;2024-03-23T08:07:52;8.47;;;2.70;;
26780;SDS011;14366;49.184;8.054;2024-03-23T08:13:28;7.30;;;3.00;;
26780;SDS011;14366;49.184;8.054;2024-03-23T08:23:51;4.90;;;3.00;;
26780;SDS011;14366;49.184;8.054;2024-03-23T08:29:26;8.20;;;3.37;;
26780;SDS011;14366;49.184;8.054;2024-03-23T08:39:52;7.93;;;2.90;;
26780;SDS011;14366;49.184;8.054;2024-03-23T08:45:28;5.23;;;2.70;;
26780;SDS011;14366;49.184;8.054;2024-03-23T08:50:57;6.53;;;3.00;;
26780;SDS011;14366;49.184;8.054;2024-03-23T09:02:29;6.77;;;3.23;;
26780;SDS011;14366;49.184;8.054;2024-03-23T09:08:03;9.17;;;3.43;;
26780;SDS011;14366;49.184;8.054;2024-03-23T09:13:39;9.13;;;3.50;;
26780;SDS011;14366;49.184;8.054;2024-03-23T09:19:16;6.83;;;3.40;;
26780;SDS011;14366;49.184;8.054;2024-03-23T09:24:50;6.27;;;2.80;;
26780;SDS011;14366;49.184;8.054;2024-03-23T09:35:31;9.20;;;3.17;;
26780;SDS011;14366;49.184;8.054;2024-03-23T09:46:11;6.30;;;2.90;;
26780;SDS011;14366;49.184;8.054;2024-03-23T09:56:48;6.80;;;2.70;;
26780;SDS011;14366;49.184;8.054;2024-03-23T10:02:21;6.33;;;2.93;;
26780;SDS011;14366;49.184;8.054;2024-03-23T10:07:56;6.25;;;2.60;;
26780;SDS011;14366;49.184;8.054;2024-03-23T10:13:32;7.33;;;2.60;;
26780;SDS011;14366;49.184;8.054;2024-03-23T10:19:07;6.50;;;2.60;;
26780;SDS011;14366;49.184;8.054;2024-03-23T10:24:25;6.37;;;3.30;;
26780;SDS011;14366;49.184;8.054;2024-03-23T10:29:45;7.40;;;3.30;;
26780;SDS011;14366;49.184;8.054;2024-03-23T10:35:18;6.90;;;2.60;;
26780;SDS011;14366;49.184;8.054;2024-03-23T10:40:50;8.40;;;2.73;;
26780;SDS011;14366;49.184;8.054;2024-03-23T10:46:26;5.80;;;2.33;;
26780;SDS011;14366;49.184;8.054;2024-03-23T10:52:02;4.40;;;1.70;;
26780;SDS011;14366;49.184;8.054;2024-03-23T10:57:38;5.32;;;1.98;;
26780;SDS011;14366;49.184;8.054;2024-03-23T11:08:24;10.00;;;2.07;;
26780;SDS011;14366;49.184;8.054;2024-03-23T11:13:57;5.10;;;2.50;;
26780;SDS011;14366;49.184;8.054;2024-03-23T11:19:34;9.70;;;2.47;;
26780;SDS011;14366;49.184;8.054;2024-03-23T11:25:14;5.07;;;2.23;;
26780;SDS011;14366;49.184;8.054;2024-03-23T11:30:49;5.00;;;2.07;;
26780;SDS011;14366;49.184;8.054;2024-03-23T11:36:24;3.03;;;1.50;;
26780;SDS011;14366;49.184;8.054;2024-03-23T11:42:01;9.43;;;2.17;;
26780;SDS011;14366;49.184;8.054;2024-03-23T11:47:32;4.80;;;1.83;;
26780;SDS011;14366;49.184;8.054;2024-03-23T11:53:08;8.80;;;2.47;;
26780;SDS011;14366;49.184;8.054;2024-03-23T11:58:42;6.40;;;1.90;;
26780;SDS011;14366;49.184;8.054;2024-03-23T12:04:24;6.30;;;2.30;;
26780;SDS011;14366;49.184;8.054;2024-03-23T12:10:02;5.13;;;2.00;;
26780;SDS011;14366;49.184;8.054;2024-03-23T12:15:39;5.37;;;2.20;;
26780;SDS011;14366;49.184;8.054;2024-03-23T12:26:16;5.67;;;2.43;;
26780;SDS011;14366;49.184;8.054;2024-03-23T12:36:43;2.80;;;1.40;;
26780;SDS011;14366;49.184;8.054;2024-03-23T12:42:18;2.07;;;1.20;;
26780;SDS011;14366;49.184;8.054;2024-03-23T12:47:53;3.57;;;1.10;;
26780;SDS011;14366;49.184;8.054;2024-03-23T12:58:31;7.00;;;1.87;;
26780;SDS011;14366;49.184;8.054;2024-03-23T13:04:05;2.60;;;1.20;;
26780;SDS011;14366;49.184;8.054;2024-03-23T13:09:40;2.05;;;1.15;;
26780;SDS011;14366;49.184;8.054;2024-03-23T13:15:02;3.45;;;1.60;;
26780;SDS011;14366;49.184;8.054;2024-03-23T13:20:35;2.05;;;1.20;;
26780;SDS011;14366;49.184;8.054;2024-03-23T13:26:09;2.70;;;1.30;;
26780;SDS011;14366;49.184;8.054;2024-03-23T13:31:32;3.45;;;1.25;;
26780;SDS011;14366;49.184;8.054;2024-03-23T13:37:07;1.97;;;1.40;;
26780;SDS011;14366;49.184;8.054;2024-03-23T13:42:41;2.10;;;1.07;;
26780;SDS011;14366;49.184;8.054;2024-03-23T13:48:03;3.20;;;1.35;;
26780;SDS011;14366;49.184;8.054;2024-03-23T13:53:33;2.10;;;1.40;;
26780;SDS011;14366;49.184;8.054;2024-03-23T13:58:54;3.60;;;1.30;;
26780;SDS011;14366;49.184;8.054;2024-03-23T14:04:30;3.30;;;1.55;;
26780;SDS011;14366;49.184;8.054;2024-03-23T14:10:02;3.73;;;1.33;;
26780;SDS011;14366;49.184;8.054;2024-03-23T14:15:37;2.10;;;1.40;;
26780;SDS011;14366;49.184;8.054;2024-03-23T14:21:13;2.40;;;1.20;;
26780;SDS011;14366;49.184;8.054;2024-03-23T14:26:48;2.07;;;1.30;;
26780;SDS011;14366;49.184;8.054;2024-03-23T14:37:23;2.97;;;1.40;;
26780;SDS011;14366;49.184;8.054;2024-03-23T14:42:58;2.70;;;1.30;;
26780;SDS011;14366;49.184;8.054;2024-03-23T14:48:19;3.97;;;1.53;;
26780;SDS011;14366;49.184;8.054;2024-03-23T14:53:55;3.13;;;1.60;;
26780;SDS011;14366;49.184;8.054;2024-03-23T14:59:30;1.97;;;1.20;;
26780;SDS011;14366;49.184;8.054;2024-03-23T15:05:05;4.00;;;1.63;;
26780;SDS011;14366;49.184;8.054;2024-03-23T15:10:41;5.43;;;1.30;;
26780;SDS011;14366;49.184;8.054;2024-03-23T15:16:16;4.00;;;1.67;;
26780;SDS011;14366;49.184;8.054;2024-03-23T15:21:51;3.70;;;1.43;;
26780;SDS011;14366;49.184;8.054;2024-03-23T15:27:12;3.20;;;1.30;;
26780;SDS011;14366;49.184;8.054;2024-03-23T15:32:47;2.73;;;1.40;;
26780;SDS011;14366;49.184;8.054;2024-03-23T15:38:07;2.27;;;1.10;;
26780;SDS011;14366;49.184;8.054;2024-03-23T15:43:43;3.10;;;1.90;;
26780;SDS011;14366;49.184;8.054;2024-03-23T15:49:18;6.43;;;3.50;;
26780;SDS011;14366;49.184;8.054;2024-03-23T15:54:38;3.87;;;2.30;;
26780;SDS011;14366;49.184;8.054;2024-03-23T16:00:00;5.25;;;2.50;;
26780;SDS011;14366;49.184;8.054;2024-03-23T16:05:35;3.70;;;2.20;;
26780;SDS011;14366;49.184;8.054;2024-03-23T16:15:57;24.80;;;14.60;;
26780;SDS011;14366;49.184;8.054;2024-03-23T16:21:30;5.50;;;3.10;;
26780;SDS011;14366;49.184;8.054;2024-03-23T16:27:05;4.05;;;1.80;;
26780;SDS011;14366;49.184;8.054;2024-03-23T16:32:41;2.35;;;1.25;;
26780;SDS011;14366;49.184;8.054;2024-03-23T16:38:14;0.90;;;0.80;;
26780;SDS011;14366;49.184;8.054;2024-03-23T16:43:34;1.90;;;0.77;;
26780;SDS011;14366;49.184;8.054;2024-03-23T16:49:10;1.30;;;0.90;;
26780;SDS011;14366;49.184;8.054;2024-03-23T16:54:45;0.80;;;0.80;;
26780;SDS011;14366;49.184;8.054;2024-03-23T17:00:06;0.70;;;0.70;;
26780;SDS011;14366;49.184;8.054;2024-03-23T17:05:40;2.10;;;1.00;;
26780;SDS011;14366;49.184;8.054;2024-03-23T17:11:15;1.97;;;0.93;;
26780;SDS011;14366;49.184;8.054;2024-03-23T17:16:48;1.57;;;1.00;;
26780;SDS011;14366;49.184;8.054;2024-03-23T17:22:08;1.73;;;1.10;;
26780;SDS011;14366;49.184;8.054;2024-03-23T17:27:43;2.00;;;1.00;;
26780;SDS011;14366;49.184;8.054;2024-03-23T17:33:18;3.85;;;1.10;;
26780;SDS011;14366;49.184;8.054;2024-03-23T17:38:55;1.77;;;1.37;;
26780;SDS011;14366;49.184;8.054;2024-03-23T17:44:27;2.60;;;1.20;;
26780;SDS011;14366;49.184;8.054;2024-03-23T17:49:47;3.10;;;1.20;;
26780;SDS011;14366;49.184;8.054;2024-03-23T17:55:09;1.80;;;1.30;;
